Time;durP1;ratioP1;P1;durP2;ratioP2;P2;SDS_P1;SDS_P2;PMS_P1;PMS_P2;Temp;Humidity;BMP_temperature;BMP_pressure;BME280_temperature;BME280_humidity;BME280_pressure;Samples;Min_cycle;Max_cycle;Signal;HPM_P1;HPM_P2
2023/05/03 00:02:15;;;;;;;0.30;0.30;;;;;;;;;;4973010;28;20232;-91
2023/05/03 00:04:50;;;;;;;0.60;0.40;;;;;;;;;;4977775;28;20191;-93
2023/05/03 00:07:20;;;;;;;0.30;0.30;;;;;;;;;;4977849;28;20253;-92
2023/05/03 00:09:48;;;;;;;0.73;0.50;;;;;;;;;;4977591;28;20232;-92
2023/05/03 00:12:24;;;;;;;0.37;0.37;;;;;;;;;;4961796;29;20294;-92
2023/05/03 00:15:01;;;;;;;0.37;0.37;;;;;;;;;;4963888;29;20202;-93
2023/05/03 00:17:30;;;;;;;1.90;0.77;;;;;;;;;;4970497;29;20217;-93
2023/05/03 00:20:01;;;;;;;0.50;0.50;;;;;;;;;;4976317;28;20216;-92
2023/05/03 00:22:41;;;;;;;0.67;0.43;;;;;;;;;;4968147;28;20226;-92
2023/05/03 00:25:10;;;;;;;0.30;0.30;;;;;;;;;;4968486;29;20200;-93
2023/05/03 00:27:38;;;;;;;2.20;0.40;;;;;;;;;;4963544;29;20273;-91
2023/05/03 00:30:07;;;;;;;0.53;0.53;;;;;;;;;;4962687;29;20732;-93
2023/05/03 00:32:37;;;;;;;1.00;0.53;;;;;;;;;;4961040;29;20258;-92
2023/05/03 00:35:05;;;;;;;0.60;0.40;;;;;;;;;;4967850;29;20202;-93
2023/05/03 00:37:40;;;;;;;0.30;0.30;;;;;;;;;;4962087;29;20286;-93
2023/05/03 00:40:16;;;;;;;7.53;0.30;;;;;;;;;;4963225;29;20198;-94
2023/05/03 00:42:48;;;;;;;1.50;0.53;;;;;;;;;;4960831;29;20234;-93
2023/05/03 00:45:19;;;;;;;0.53;0.53;;;;;;;;;;4960012;29;20191;-92
2023/05/03 00:47:52;;;;;;;0.63;0.53;;;;;;;;;;4959889;29;20199;-92
2023/05/03 00:50:20;;;;;;;1.60;0.40;;;;;;;;;;4961257;29;20261;-93
2023/05/03 00:52:54;;;;;;;5.03;0.50;;;;;;;;;;4959547;29;20638;-92
2023/05/03 00:55:35;;;;;;;0.43;0.43;;;;;;;;;;4961879;29;20202;-92
2023/05/03 00:58:11;;;;;;;0.60;0.50;;;;;;;;;;4961781;29;20225;-94
2023/05/03 01:00:40;;;;;;;0.57;0.57;;;;;;;;;;4964687;29;20651;-93
2023/05/03 01:03:24;;;;;;;0.57;0.57;;;;;;;;;;4966948;29;20262;-93
2023/05/03 01:05:59;;;;;;;0.83;0.83;;;;;;;;;;4970511;29;20206;-91
2023/05/03 01:08:32;;;;;;;1.00;0.73;;;;;;;;;;4970021;29;20322;-91
2023/05/03 01:11:08;;;;;;;2.03;1.90;;;;;;;;;;4960728;29;20675;-92
2023/05/03 01:13:44;;;;;;;0.50;0.50;;;;;;;;;;4963775;28;20661;-93
2023/05/03 01:16:35;;;;;;;0.73;0.73;;;;;;;;;;4966378;29;20214;-93
2023/05/03 01:19:06;;;;;;;0.57;0.57;;;;;;;;;;4964781;29;20265;-92
2023/05/03 01:21:34;;;;;;;0.47;0.47;;;;;;;;;;4972949;29;20203;-91
2023/05/03 01:24:10;;;;;;;0.53;0.40;;;;;;;;;;4969500;29;20237;-92
2023/05/03 01:26:40;;;;;;;0.60;0.40;;;;;;;;;;4969351;29;20221;-92
2023/05/03 01:29:08;;;;;;;0.30;0.30;;;;;;;;;;4968043;29;20210;-93
2023/05/03 01:31:43;;;;;;;0.20;0.20;;;;;;;;;;4968691;29;20286;-94
2023/05/03 01:34:18;;;;;;;0.50;0.50;;;;;;;;;;4970035;29;20233;-94
2023/05/03 01:36:46;;;;;;;0.40;0.40;;;;;;;;;;4966295;29;20206;-94
2023/05/03 01:39:30;;;;;;;2.23;0.50;;;;;;;;;;4968274;28;20195;-92
2023/05/03 01:42:00;;;;;;;0.30;0.30;;;;;;;;;;4968563;29;20230;-92
2023/05/03 01:44:29;;;;;;;0.30;0.30;;;;;;;;;;4961797;29;20237;-94
2023/05/03 01:47:00;;;;;;;0.63;0.63;;;;;;;;;;4959142;29;20203;-93
2023/05/03 01:49:34;;;;;;;0.30;0.30;;;;;;;;;;4959044;29;20242;-94
2023/05/03 01:52:01;;;;;;;0.40;0.40;;;;;;;;;;4959800;29;20207;-93
2023/05/03 01:54:34;;;;;;;3.90;0.33;;;;;;;;;;4959966;29;20600;-93
2023/05/03 01:57:04;;;;;;;0.50;0.50;;;;;;;;;;4959254;29;20609;-92
2023/05/03 01:59:31;;;;;;;1.40;0.50;;;;;;;;;;4958774;29;20203;-94
2023/05/03 02:02:04;;;;;;;0.20;0.20;;;;;;;;;;4959571;29;20198;-91
2023/05/03 02:04:33;;;;;;;0.57;0.57;;;;;;;;;;4958450;29;20708;-94
2023/05/03 02:07:01;;;;;;;2.67;0.87;;;;;;;;;;4959069;29;20202;-93
2023/05/03 02:09:35;;;;;;;0.67;0.67;;;;;;;;;;4959293;29;20195;-93
2023/05/03 02:12:08;;;;;;;0.50;0.50;;;;;;;;;;4959141;29;20302;-93
2023/05/03 02:14:46;;;;;;;0.93;0.50;;;;;;;;;;4958823;29;20202;-92
2023/05/03 02:17:16;;;;;;;1.60;0.47;;;;;;;;;;4958565;29;20234;-92
2023/05/03 02:19:44;;;;;;;0.47;0.47;;;;;;;;;;4961884;29;20211;-92
2023/05/03 02:22:12;;;;;;;0.30;0.30;;;;;;;;;;4960609;29;20281;-93
2023/05/03 02:24:42;;;;;;;1.00;0.70;;;;;;;;;;4960617;28;20279;-94
2023/05/03 02:27:13;;;;;;;0.83;0.83;;;;;;;;;;4962632;29;20203;-94
2023/05/03 02:29:44;;;;;;;1.33;1.00;;;;;;;;;;4963240;29;20203;-92
2023/05/03 02:32:13;;;;;;;0.70;0.70;;;;;;;;;;4962644;29;20570;-93
2023/05/03 02:34:46;;;;;;;0.70;0.70;;;;;;;;;;4962504;29;20672;-92
2023/05/03 02:37:15;;;;;;;0.30;0.27;;;;;;;;;;4962993;29;20195;-93
2023/05/03 02:39:44;;;;;;;0.73;0.73;;;;;;;;;;4962119;29;20225;-93
2023/05/03 02:42:16;;;;;;;0.70;0.70;;;;;;;;;;4963345;29;20205;-93
2023/05/03 02:44:47;;;;;;;0.60;0.60;;;;;;;;;;4962989;29;20245;-93
2023/05/03 02:47:36;;;;;;;0.47;0.47;;;;;;;;;;4963142;29;20226;-94
2023/05/03 02:50:05;;;;;;;0.60;0.60;;;;;;;;;;4961500;29;20234;-90
2023/05/03 02:52:34;;;;;;;0.50;0.50;;;;;;;;;;4960042;29;20198;-93
2023/05/03 02:55:01;;;;;;;0.60;0.60;;;;;;;;;;4958947;29;20293;-93
2023/05/03 02:57:36;;;;;;;0.83;0.67;;;;;;;;;;4959464;29;20207;-92
2023/05/03 03:00:08;;;;;;;0.70;0.70;;;;;;;;;;4959482;29;20202;-93
2023/05/03 03:02:41;;;;;;;0.70;0.70;;;;;;;;;;4959318;29;20203;-94
2023/05/03 03:05:11;;;;;;;0.40;0.40;;;;;;;;;;4960048;29;20293;-95
2023/05/03 03:07:41;;;;;;;0.63;0.57;;;;;;;;;;4960103;29;20435;-92
2023/05/03 03:10:18;;;;;;;0.50;0.50;;;;;;;;;;4959693;29;20203;-92
2023/05/03 03:12:50;;;;;;;2.93;0.37;;;;;;;;;;4961123;29;20210;-91
2023/05/03 03:15:18;;;;;;;0.50;0.50;;;;;;;;;;4959367;29;20226;-92
2023/05/03 03:17:47;;;;;;;0.53;0.53;;;;;;;;;;4958162;29;20234;-94
2023/05/03 03:20:17;;;;;;;2.17;1.90;;;;;;;;;;4958585;29;20298;-93
2023/05/03 03:22:50;;;;;;;0.73;0.73;;;;;;;;;;4960231;29;20301;-92
2023/05/03 03:28:08;;;;;;;1.07;0.80;;;;;;;;;;4969533;29;20206;-93
2023/05/03 03:30:37;;;;;;;1.57;0.63;;;;;;;;;;4971748;29;20221;-92
2023/05/03 03:33:10;;;;;;;0.90;0.60;;;;;;;;;;4978348;28;20210;-92
2023/05/03 03:35:59;;;;;;;0.63;0.63;;;;;;;;;;4965293;28;20218;-93
2023/05/03 03:38:31;;;;;;;0.33;0.33;;;;;;;;;;4960331;29;20209;-92
2023/05/03 03:41:00;;;;;;;0.73;0.73;;;;;;;;;;4960202;29;20621;-93
2023/05/03 03:43:32;;;;;;;0.50;0.50;;;;;;;;;;4961291;29;20234;-94
2023/05/03 03:46:03;;;;;;;3.60;0.83;;;;;;;;;;4960056;29;20230;-93
2023/05/03 03:48:36;;;;;;;1.13;0.83;;;;;;;;;;4959189;29;20207;-94
2023/05/03 03:51:10;;;;;;;2.33;1.00;;;;;;;;;;4959604;29;20205;-94
2023/05/03 03:53:42;;;;;;;0.40;0.40;;;;;;;;;;4959173;29;20227;-93
2023/05/03 03:56:17;;;;;;;0.80;0.77;;;;;;;;;;4959658;29;20201;-93
2023/05/03 03:59:08;;;;;;;1.03;1.00;;;;;;;;;;4960086;29;20206;-92
2023/05/03 04:01:41;;;;;;;0.80;0.60;;;;;;;;;;4960067;29;20218;-94
2023/05/03 04:04:12;;;;;;;0.60;0.60;;;;;;;;;;4959797;29;20231;-92
2023/05/03 04:06:40;;;;;;;0.50;0.50;;;;;;;;;;4959780;29;20621;-93
2023/05/03 04:09:09;;;;;;;0.73;0.73;;;;;;;;;;4958611;29;20257;-93
2023/05/03 04:11:40;;;;;;;0.50;0.50;;;;;;;;;;4958793;29;20229;-95
2023/05/03 04:14:17;;;;;;;1.70;0.90;;;;;;;;;;4959451;29;20202;-94
2023/05/03 04:16:46;;;;;;;0.60;0.60;;;;;;;;;;4959284;29;20253;-91
2023/05/03 04:19:14;;;;;;;0.60;0.60;;;;;;;;;;4959182;29;20202;-92
2023/05/03 04:21:49;;;;;;;0.53;0.53;;;;;;;;;;4960562;29;20230;-93
2023/05/03 04:27:18;;;;;;;0.37;0.37;;;;;;;;;;4962510;29;20202;-92
2023/05/03 04:29:55;;;;;;;1.80;0.67;;;;;;;;;;4959563;29;20632;-93
2023/05/03 04:32:24;;;;;;;0.83;0.83;;;;;;;;;;4963149;29;20202;-92
2023/05/03 04:34:59;;;;;;;0.60;0.57;;;;;;;;;;4958785;29;20202;-94
2023/05/03 04:37:27;;;;;;;1.03;0.90;;;;;;;;;;4960122;29;20197;-93
2023/05/03 04:40:01;;;;;;;0.60;0.60;;;;;;;;;;4959572;29;20692;-93
2023/05/03 04:42:41;;;;;;;0.80;0.70;;;;;;;;;;4959069;29;20202;-95
2023/05/03 04:45:20;;;;;;;0.50;0.50;;;;;;;;;;4959895;29;20242;-94
2023/05/03 04:48:18;;;;;;;;;;;;;;;;;;;;;
2023/05/03 04:51:06;;;;;;;0.80;0.80;;;;;;;;;;4959899;29;20691;-93
2023/05/03 04:53:36;;;;;;;0.67;0.53;;;;;;;;;;4960676;29;20206;-93
2023/05/03 04:56:08;;;;;;;0.50;0.50;;;;;;;;;;4959700;29;20202;-93
2023/05/03 04:58:43;;;;;;;0.63;0.63;;;;;;;;;;4958344;29;20222;-92
2023/05/03 05:04:20;;;;;;;0.30;0.30;;;;;;;;;;4961953;29;20726;-91
2023/05/03 05:06:59;;;;;;;0.70;0.70;;;;;;;;;;4961294;29;20295;-92
2023/05/03 05:09:29;;;;;;;12.10;0.93;;;;;;;;;;4959429;29;20207;-93
2023/05/03 05:12:09;;;;;;;0.47;0.47;;;;;;;;;;4958486;29;20294;-94
2023/05/03 05:14:48;;;;;;;1.23;1.03;;;;;;;;;;4958630;29;20207;-93
2023/05/03 05:17:25;;;;;;;0.73;0.40;;;;;;;;;;4959593;29;20234;-92
2023/05/03 05:20:21;;;;;;;;;;;;;;;;;;;;;
2023/05/03 05:23:00;;;;;;;0.67;0.67;;;;;;;;;;4959528;29;20197;-93
2023/05/03 05:25:47;;;;;;;1.80;0.70;;;;;;;;;;4958285;29;20301;-94
2023/05/03 05:28:18;;;;;;;1.10;1.00;;;;;;;;;;4958149;29;20203;-93
2023/05/03 05:31:09;;;;;;;0.50;0.50;;;;;;;;;;4958400;29;20198;-92
2023/05/03 05:33:42;;;;;;;1.00;1.00;;;;;;;;;;4960078;29;20203;-92
2023/05/03 05:36:20;;;;;;;0.83;0.83;;;;;;;;;;4958221;29;20230;-94
2023/05/03 05:39:00;;;;;;;0.60;0.57;;;;;;;;;;4962745;29;20207;-93
2023/05/03 05:41:29;;;;;;;0.70;0.70;;;;;;;;;;4975438;28;20209;-94
2023/05/03 05:44:00;;;;;;;0.57;0.57;;;;;;;;;;4966439;29;20234;-94
2023/05/03 05:46:37;;;;;;;1.17;1.10;;;;;;;;;;4956719;29;20222;-94
2023/05/03 05:49:08;;;;;;;1.20;0.90;;;;;;;;;;4956333;29;20285;-95
2023/05/03 05:51:44;;;;;;;0.67;0.67;;;;;;;;;;4958202;29;20202;-94
2023/05/03 05:54:25;;;;;;;0.67;0.67;;;;;;;;;;4956526;29;20640;-94
2023/05/03 05:56:54;;;;;;;2.83;0.67;;;;;;;;;;4960440;29;20206;-93
2023/05/03 05:59:33;;;;;;;0.57;0.57;;;;;;;;;;4966050;28;20303;-92
2023/05/03 06:02:03;;;;;;;0.60;0.60;;;;;;;;;;4972362;29;20193;-93
2023/05/03 06:04:38;;;;;;;0.67;0.67;;;;;;;;;;4971083;29;20230;-92
2023/05/03 06:07:25;;;;;;;0.40;0.40;;;;;;;;;;4969231;29;20186;-93
2023/05/03 06:10:01;;;;;;;0.60;0.60;;;;;;;;;;4969965;29;20234;-94
2023/05/03 06:12:40;;;;;;;0.60;0.60;;;;;;;;;;4963744;29;20221;-94
2023/05/03 06:15:24;;;;;;;0.77;0.77;;;;;;;;;;4963439;29;20217;-93
2023/05/03 06:20:47;;;;;;;1.90;1.10;;;;;;;;;;5316264;23;20234;-94
2023/05/03 06:23:16;;;;;;;3.97;0.60;;;;;;;;;;4963531;29;20187;-93
2023/05/03 06:25:48;;;;;;;1.50;1.13;;;;;;;;;;4964180;28;20241;-94
2023/05/03 06:28:24;;;;;;;0.50;0.50;;;;;;;;;;4974120;28;20198;-94
2023/05/03 06:34:05;;;;;;;;;;;;;;;;;;;;;
2023/05/03 06:37:12;;;;;;;0.30;0.30;;;;;;;;;;4962762;29;20190;-92
2023/05/03 06:43:23;;;;;;;3.43;1.50;;;;;;;;;;4961773;29;20293;-94
2023/05/03 06:46:07;;;;;;;0.80;0.80;;;;;;;;;;4956678;29;20237;-93
2023/05/03 06:48:58;;;;;;;1.00;1.00;;;;;;;;;;4961097;29;20206;-92
2023/05/03 06:51:37;;;;;;;1.13;0.73;;;;;;;;;;4962665;29;20287;-90
2023/05/03 06:54:08;;;;;;;0.60;0.60;;;;;;;;;;4963658;29;20210;-94
2023/05/03 06:56:49;;;;;;;1.47;1.00;;;;;;;;;;4963166;29;20207;-93
2023/05/03 06:59:27;;;;;;;2.27;0.97;;;;;;;;;;4963315;29;20270;-93
2023/05/03 07:02:20;;;;;;;0.50;0.50;;;;;;;;;;4963930;29;20206;-94
2023/05/03 07:04:59;;;;;;;0.50;0.50;;;;;;;;;;4977477;28;20226;-94
2023/05/03 07:10:29;;;;;;;0.70;0.70;;;;;;;;;;4909242;29;20239;-94
2023/05/03 07:16:02;;;;;;;0.70;0.70;;;;;;;;;;4942451;29;20250;-94
2023/05/03 07:18:38;;;;;;;2.57;1.13;;;;;;;;;;4944331;29;20207;-93
2023/05/03 07:21:11;;;;;;;1.70;0.60;;;;;;;;;;4945139;29;20277;-93
2023/05/03 07:23:43;;;;;;;0.73;0.73;;;;;;;;;;4940471;29;20250;-92
2023/05/03 07:26:20;;;;;;;0.77;0.77;;;;;;;;;;4939779;29;20247;-94
2023/05/03 07:28:47;;;;;;;0.70;0.70;;;;;;;;;;4939800;29;20203;-92
2023/05/03 07:31:21;;;;;;;0.77;0.60;;;;;;;;;;4940310;29;20222;-91
2023/05/03 07:34:00;;;;;;;1.07;1.07;;;;;;;;;;4941075;29;20299;-92
2023/05/03 07:36:33;;;;;;;1.00;1.00;;;;;;;;;;4941486;29;20207;-92
2023/05/03 07:41:50;;;;;;;0.60;0.60;;;;;;;;;;4947976;29;20206;-92
2023/05/03 07:44:31;;;;;;;0.53;0.53;;;;;;;;;;4948137;29;20222;-93
2023/05/03 07:47:06;;;;;;;0.97;0.93;;;;;;;;;;4942835;29;20208;-94
2023/05/03 07:49:36;;;;;;;2.50;1.53;;;;;;;;;;4943600;29;20203;-94
2023/05/03 07:52:08;;;;;;;0.50;0.50;;;;;;;;;;4942445;29;20203;-94
2023/05/03 07:54:59;;;;;;;3.77;0.83;;;;;;;;;;4948545;29;20211;-92
2023/05/03 07:57:31;;;;;;;1.40;0.80;;;;;;;;;;4953967;29;20202;-92
2023/05/03 08:00:11;;;;;;;0.57;0.57;;;;;;;;;;4942719;29;20210;-93
2023/05/03 08:02:48;;;;;;;1.70;0.87;;;;;;;;;;4946843;29;20212;-93
2023/05/03 08:05:17;;;;;;;1.40;1.37;;;;;;;;;;4939084;29;20231;-95
2023/05/03 08:07:50;;;;;;;0.93;0.93;;;;;;;;;;4939859;29;20272;-93
2023/05/03 08:10:22;;;;;;;1.20;1.20;;;;;;;;;;4939798;29;20294;-94
2023/05/03 08:12:51;;;;;;;0.77;0.77;;;;;;;;;;4941681;29;20203;-94
2023/05/03 08:15:24;;;;;;;1.13;0.93;;;;;;;;;;4942452;29;20259;-95
2023/05/03 08:17:52;;;;;;;1.13;1.10;;;;;;;;;;4942291;29;20223;-93
2023/05/03 08:20:26;;;;;;;0.97;0.97;;;;;;;;;;4942137;29;20250;-93
2023/05/03 08:22:58;;;;;;;1.00;1.00;;;;;;;;;;4952986;29;20234;-93
2023/05/03 08:25:31;;;;;;;1.13;1.13;;;;;;;;;;4959119;29;20238;-93
2023/05/03 08:28:07;;;;;;;0.80;0.80;;;;;;;;;;4950757;29;20235;-95
2023/05/03 08:30:39;;;;;;;0.90;0.90;;;;;;;;;;4951344;29;20194;-93
2023/05/03 08:33:08;;;;;;;1.17;1.07;;;;;;;;;;4958168;29;20349;-93
2023/05/03 08:35:39;;;;;;;1.00;1.00;;;;;;;;;;4958712;29;20172;-92
2023/05/03 08:38:18;;;;;;;1.87;1.33;;;;;;;;;;4959064;29;20187;-92
2023/05/03 08:40:54;;;;;;;1.37;1.37;;;;;;;;;;4959125;29;20195;-90
2023/05/03 08:43:21;;;;;;;1.73;1.50;;;;;;;;;;4958659;29;20187;-93
2023/05/03 08:45:51;;;;;;;2.37;1.43;;;;;;;;;;4958925;29;20443;-92
2023/05/03 08:48:24;;;;;;;1.50;1.37;;;;;;;;;;4958717;29;20263;-92
2023/05/03 08:51:04;;;;;;;1.57;1.50;;;;;;;;;;4958516;29;20192;-93
2023/05/03 08:53:39;;;;;;;1.63;1.52;;;;;;;;;;4956182;29;20225;-93
2023/05/03 08:56:25;;;;;;;1.92;1.73;;;;;;;;;;4953933;29;20211;-93
2023/05/03 08:59:06;;;;;;;;;;;;;;;;;;;;;
2023/05/03 09:04:49;;;;;;;1.63;1.30;;;;;;;;;;4972437;23;20336;-92
2023/05/03 09:07:22;;;;;;;1.07;1.07;;;;;;;;;;4972319;29;20215;-93
2023/05/03 09:10:04;;;;;;;1.87;1.77;;;;;;;;;;4972849;29;20230;-94
2023/05/03 09:12:44;;;;;;;0.70;0.70;;;;;;;;;;4953217;29;20219;-94
2023/05/03 09:15:22;;;;;;;2.07;1.17;;;;;;;;;;4950354;29;20240;-93
2023/05/03 09:18:10;;;;;;;1.10;1.10;;;;;;;;;;4949377;29;20677;-92
2023/05/03 09:20:50;;;;;;;0.90;0.90;;;;;;;;;;4948653;29;20228;-94
2023/05/03 09:23:21;;;;;;;1.10;1.10;;;;;;;;;;4948110;29;20205;-92
2023/05/03 09:26:02;;;;;;;1.90;1.13;;;;;;;;;;4944550;29;20683;-92
2023/05/03 09:28:44;;;;;;;1.30;1.30;;;;;;;;;;4949277;29;20462;-93
2023/05/03 09:31:20;;;;;;;1.00;1.00;;;;;;;;;;4957462;29;20246;-94
2023/05/03 09:33:50;;;;;;;1.02;1.02;;;;;;;;;;4938427;29;20212;-94
2023/05/03 09:36:19;;;;;;;0.88;0.88;;;;;;;;;;4941842;29;20289;-94
2023/05/03 09:38:54;;;;;;;0.88;0.88;;;;;;;;;;4941453;29;20206;-92
2023/05/03 09:41:51;;;;;;;5.85;1.50;;;;;;;;;;4940806;29;20198;-93
2023/05/03 09:44:25;;;;;;;1.42;1.42;;;;;;;;;;4940599;29;20217;-94
2023/05/03 09:47:35;;;;;;;0.95;0.95;;;;;;;;;;4940329;29;20356;-93
2023/05/03 09:50:05;;;;;;;1.30;1.20;;;;;;;;;;4936404;29;20205;-94
2023/05/03 09:52:34;;;;;;;1.33;1.30;;;;;;;;;;4943519;29;20209;-95
2023/05/03 09:55:02;;;;;;;1.40;1.38;;;;;;;;;;4939868;29;20207;-93
2023/05/03 09:57:38;;;;;;;1.27;1.20;;;;;;;;;;4939722;29;20214;-94
2023/05/03 10:00:15;;;;;;;1.08;1.08;;;;;;;;;;4939942;29;20209;-95
2023/05/03 10:02:43;;;;;;;1.40;1.30;;;;;;;;;;4940089;29;20236;-93
2023/05/03 10:05:15;;;;;;;1.40;1.40;;;;;;;;;;4939978;29;20254;-94
2023/05/03 10:07:48;;;;;;;1.58;1.48;;;;;;;;;;4940058;29;20700;-92
2023/05/03 10:10:19;;;;;;;3.83;1.05;;;;;;;;;;4939630;29;20700;-94
2023/05/03 10:12:53;;;;;;;1.27;1.15;;;;;;;;;;4939988;29;20568;-93
2023/05/03 10:15:21;;;;;;;1.55;1.20;;;;;;;;;;4939590;29;20300;-93
2023/05/03 10:18:04;;;;;;;1.13;1.13;;;;;;;;;;4940562;29;20220;-93
2023/05/03 10:20:38;;;;;;;1.80;1.23;;;;;;;;;;4939121;29;20658;-92
2023/05/03 10:23:12;;;;;;;1.25;1.20;;;;;;;;;;4941838;29;20228;-92
2023/05/03 10:26:15;;;;;;;;;;;;;;;;;;;;;
2023/05/03 10:28:50;;;;;;;1.10;1.10;;;;;;;;;;4945498;29;20213;-90
2023/05/03 10:31:43;;;;;;;2.50;1.08;;;;;;;;;;4941346;29;20292;-93
2023/05/03 10:34:28;;;;;;;3.08;1.08;;;;;;;;;;4886391;29;20229;-93
2023/05/03 10:37:03;;;;;;;2.55;1.70;;;;;;;;;;4938572;29;20247;-93
2023/05/03 10:39:32;;;;;;;4.00;1.20;;;;;;;;;;4938893;29;20245;-93
2023/05/03 10:42:17;;;;;;;0.90;0.90;;;;;;;;;;4941677;29;20210;-94
2023/05/03 10:45:11;;;;;;;1.48;1.38;;;;;;;;;;4938693;29;20200;-93
2023/05/03 10:47:54;;;;;;;1.13;0.70;;;;;;;;;;4938500;29;20216;-94
2023/05/03 10:50:33;;;;;;;1.67;1.58;;;;;;;;;;4939397;29;20214;-94
2023/05/03 10:56:07;;;;;;;1.67;1.27;;;;;;;;;;4926690;29;20220;-93
2023/05/03 10:58:54;;;;;;;0.95;0.95;;;;;;;;;;4946697;29;20198;-93
2023/05/03 11:01:28;;;;;;;1.23;1.23;;;;;;;;;;4952120;29;20215;-92
2023/05/03 11:04:06;;;;;;;1.00;1.00;;;;;;;;;;4954164;29;20238;-94
2023/05/03 11:06:41;;;;;;;5.15;1.15;;;;;;;;;;4939658;29;20288;-92
2023/05/03 11:09:13;;;;;;;1.00;1.00;;;;;;;;;;4938761;29;20211;-93
2023/05/03 11:11:53;;;;;;;1.88;1.08;;;;;;;;;;4940165;29;20232;-93
2023/05/03 11:14:56;;;;;;;;;;;;;;;;;;;;;
2023/05/03 11:17:28;;;;;;;0.95;0.95;;;;;;;;;;4939650;29;20208;-93
2023/05/03 11:20:11;;;;;;;;;;;;;;;;;;;;;
2023/05/03 11:22:45;;;;;;;0.80;0.80;;;;;;;;;;4942860;29;20202;-94
2023/05/03 11:25:15;;;;;;;0.93;0.93;;;;;;;;;;4946462;29;20193;-94
2023/05/03 11:27:54;;;;;;;1.25;1.15;;;;;;;;;;4940998;29;20249;-94
2023/05/03 11:30:26;;;;;;;0.98;0.98;;;;;;;;;;4939105;29;20270;-94
2023/05/03 11:33:05;;;;;;;0.93;0.93;;;;;;;;;;4940114;29;20234;-93
2023/05/03 11:35:37;;;;;;;1.33;1.33;;;;;;;;;;4940180;29;20211;-93
2023/05/03 11:38:07;;;;;;;1.70;1.30;;;;;;;;;;4940044;29;20262;-92
2023/05/03 11:40:38;;;;;;;0.80;0.80;;;;;;;;;;4938803;29;20213;-93
2023/05/03 11:43:10;;;;;;;0.82;0.82;;;;;;;;;;4939155;29;20243;-92
2023/05/03 11:45:40;;;;;;;0.85;0.85;;;;;;;;;;4938771;29;20707;-93
2023/05/03 11:48:24;;;;;;;0.90;0.90;;;;;;;;;;4940229;29;20203;-92
2023/05/03 11:51:17;;;;;;;1.17;0.90;;;;;;;;;;4939077;29;20213;-93
2023/05/03 11:53:54;;;;;;;0.85;0.85;;;;;;;;;;4942413;29;20213;-92
2023/05/03 11:56:35;;;;;;;1.02;1.02;;;;;;;;;;4943930;29;20208;-94
2023/05/03 11:59:07;;;;;;;1.00;0.85;;;;;;;;;;4942075;29;20421;-94
2023/05/03 12:01:50;;;;;;;2.35;1.10;;;;;;;;;;4939420;29;20268;-92
2023/05/03 12:04:42;;;;;;;;;;;;;;;;;;;;;
2023/05/03 12:07:26;;;;;;;1.08;1.08;;;;;;;;;;4939416;29;20260;-94
2023/05/03 12:10:01;;;;;;;1.25;1.00;;;;;;;;;;4937990;29;20589;-93
2023/05/03 12:12:40;;;;;;;0.82;0.82;;;;;;;;;;4937686;29;20650;-91
2023/05/03 12:15:14;;;;;;;1.15;1.13;;;;;;;;;;4938668;29;20199;-93
2023/05/03 12:20:40;;;;;;;1.05;1.05;;;;;;;;;;4938472;29;20266;-92
2023/05/03 12:23:09;;;;;;;1.00;1.00;;;;;;;;;;4942618;29;20214;-92
2023/05/03 12:25:45;;;;;;;0.98;0.60;;;;;;;;;;4953650;29;20197;-92
2023/05/03 12:28:17;;;;;;;1.17;1.17;;;;;;;;;;4956444;29;20235;-92
2023/05/03 12:30:52;;;;;;;1.23;1.17;;;;;;;;;;4942823;29;20207;-92
2023/05/03 12:36:18;;;;;;;0.77;0.77;;;;;;;;;;4928659;29;20204;-94
2023/05/03 12:38:49;;;;;;;1.23;1.20;;;;;;;;;;4937324;29;20212;-94
2023/05/03 12:41:36;;;;;;;;;;;;;;;;;;;;;
2023/05/03 12:44:22;;;;;;;3.93;0.87;;;;;;;;;;4937804;29;20199;-94
2023/05/03 12:46:55;;;;;;;1.30;1.30;;;;;;;;;;4937998;29;20231;-92
2023/05/03 12:49:40;;;;;;;1.20;1.10;;;;;;;;;;4938124;29;20208;-93
2023/05/03 12:55:26;;;;;;;0.93;0.93;;;;;;;;;;4921602;29;20208;-91
2023/05/03 12:58:12;;;;;;;1.00;1.00;;;;;;;;;;4938425;29;20199;-93
2023/05/03 13:00:49;;;;;;;1.70;1.50;;;;;;;;;;4936004;29;20213;-91
2023/05/03 13:03:21;;;;;;;1.57;1.50;;;;;;;;;;4938444;29;20246;-93
2023/05/03 13:06:09;;;;;;;;;;;;;;;;;;;;;
2023/05/03 13:08:37;;;;;;;1.27;1.27;;;;;;;;;;4939954;29;20203;-95
2023/05/03 13:11:10;;;;;;;1.03;0.90;;;;;;;;;;4942460;29;20225;-94
2023/05/03 13:13:40;;;;;;;1.20;1.20;;;;;;;;;;4941719;29;20210;-94
2023/05/03 13:16:18;;;;;;;2.10;1.20;;;;;;;;;;4942253;29;20751;-93
2023/05/03 13:18:53;;;;;;;1.10;1.10;;;;;;;;;;4942154;29;20198;-93
2023/05/03 13:21:34;;;;;;;1.07;1.07;;;;;;;;;;4941265;29;20238;-93
2023/05/03 13:24:02;;;;;;;1.37;1.30;;;;;;;;;;4940824;29;20199;-92
2023/05/03 13:29:15;;;;;;;1.07;1.07;;;;;;;;;;4937776;29;20238;-92
2023/05/03 13:31:51;;;;;;;1.13;1.13;;;;;;;;;;4940659;29;20226;-92
2023/05/03 13:34:23;;;;;;;1.47;1.33;;;;;;;;;;4944040;29;20282;-92
2023/05/03 13:37:00;;;;;;;3.70;1.63;;;;;;;;;;4940344;29;20203;-93
2023/05/03 13:45:34;;;;;;;1.30;1.20;;;;;;;;;;4926121;29;20213;-93
2023/05/03 13:57:35;;;;;;;5.23;1.60;;;;;;;;;;4939668;29;20654;-93
2023/05/03 14:00:21;;;;;;;2.50;1.67;;;;;;;;;;4941922;29;20336;-93
2023/05/03 14:03:05;;;;;;;1.70;1.60;;;;;;;;;;4940786;29;20214;-92
2023/05/03 14:05:52;;;;;;;1.63;1.63;;;;;;;;;;4939371;29;20195;-92
2023/05/03 14:08:52;;;;;;;1.70;1.60;;;;;;;;;;4939573;29;20868;-95
2023/05/03 14:14:58;;;;;;;1.37;1.20;;;;;;;;;;4937536;29;20211;-93
2023/05/03 14:18:00;;;;;;;1.43;1.30;;;;;;;;;;4944317;29;20211;-93
2023/05/03 14:23:46;;;;;;;1.97;1.87;;;;;;;;;;4938463;29;20681;-92
2023/05/03 14:26:47;;;;;;;;;;;;;;;;;;;;;
2023/05/03 14:48:10;;;;;;;;;;;;;;;;;;;;;
2023/05/03 15:27:48;;;;;;;2.47;2.30;;;;;;;;;;4711645;30;20249;-93
2023/05/03 15:31:00;;;;;;;0.70;0.70;;;;;;;;;;4812360;29;20200;-94
2023/05/03 16:16:30;;;;;;;2.10;1.93;;;;;;;;;;4937663;29;20213;-96
2023/05/03 16:25:15;;;;;;;2.30;1.90;;;;;;;;;;4956990;29;20230;-94
2023/05/03 16:30:55;;;;;;;1.13;1.07;;;;;;;;;;4954236;29;20211;-95
2023/05/03 16:33:50;;;;;;;2.03;1.87;;;;;;;;;;4898713;29;20208;-94
2023/05/03 16:36:41;;;;;;;1.47;1.37;;;;;;;;;;4901275;29;20376;-96
2023/05/03 16:55:21;;;;;;;;;;;;;;;;;;;;;
2023/05/03 21:26:43;;;;;;;5.27;3.73;;;;;;;;;;4948534;26;20239;-94
2023/05/03 21:41:26;;;;;;;4.23;3.67;;;;;;;;;;4865305;29;20246;-93
2023/05/03 21:50:10;;;;;;;4.20;3.70;;;;;;;;;;4983704;23;20328;-93
2023/05/03 21:56:24;;;;;;;5.20;3.80;;;;;;;;;;4895433;29;20231;-93
2023/05/03 21:59:04;;;;;;;4.73;3.97;;;;;;;;;;4898640;29;20205;-92
2023/05/03 22:01:54;;;;;;;4.63;3.27;;;;;;;;;;4891342;29;20237;-93
2023/05/03 22:07:31;;;;;;;7.13;3.63;;;;;;;;;;4887510;29;20702;-93
2023/05/03 22:13:34;;;;;;;5.60;3.97;;;;;;;;;;4928612;29;20255;-93
2023/05/03 22:16:12;;;;;;;4.67;3.47;;;;;;;;;;4943687;29;20230;-92
2023/05/03 22:21:34;;;;;;;4.93;3.23;;;;;;;;;;4947736;28;20192;-95
2023/05/03 22:24:07;;;;;;;3.90;3.20;;;;;;;;;;4932022;29;20208;-93
2023/05/03 22:26:44;;;;;;;6.00;3.57;;;;;;;;;;4933149;29;20204;-92
2023/05/03 22:29:33;;;;;;;8.00;4.40;;;;;;;;;;4947106;29;20254;-93
2023/05/03 22:32:31;;;;;;;7.87;4.77;;;;;;;;;;4938705;29;20200;-93
2023/05/03 22:35:27;;;;;;;17.10;4.30;;;;;;;;;;4941858;29;20207;-94
2023/05/03 22:38:08;;;;;;;5.90;3.40;;;;;;;;;;4933814;29;20621;-93
2023/05/03 22:43:36;;;;;;;3.70;3.00;;;;;;;;;;4931695;29;20203;-94
2023/05/03 22:46:22;;;;;;;5.87;3.40;;;;;;;;;;4941643;29;20207;-92
2023/05/03 22:48:58;;;;;;;7.23;3.40;;;;;;;;;;4940467;29;20246;-95
2023/05/03 22:51:45;;;;;;;7.70;3.00;;;;;;;;;;4941555;29;20206;-93
2023/05/03 22:54:29;;;;;;;5.77;2.73;;;;;;;;;;4940828;29;20203;-94
2023/05/03 22:57:09;;;;;;;4.33;3.93;;;;;;;;;;4940755;29;20282;-93
2023/05/03 23:02:36;;;;;;;3.47;2.20;;;;;;;;;;4938596;29;20211;-94
2023/05/03 23:05:22;;;;;;;3.33;2.80;;;;;;;;;;4939958;29;20199;-92
2023/05/03 23:08:04;;;;;;;3.27;2.30;;;;;;;;;;4941261;29;20716;-92
2023/05/03 23:10:56;;;;;;;;;;;;;;;;;;;;;
2023/05/03 23:16:50;;;;;;;3.97;2.83;;;;;;;;;;4936957;29;20619;-92
2023/05/03 23:19:42;;;;;;;;;;;;;;;;;;;;;
2023/05/03 23:22:27;;;;;;;3.30;2.53;;;;;;;;;;4939859;29;20230;-92
2023/05/03 23:25:10;;;;;;;3.43;3.13;;;;;;;;;;4940196;29;20219;-92
2023/05/03 23:27:49;;;;;;;4.23;2.37;;;;;;;;;;4940206;29;20233;-95
2023/05/03 23:30:21;;;;;;;4.20;2.70;;;;;;;;;;4938908;29;20199;-90
2023/05/03 23:32:57;;;;;;;7.77;2.83;;;;;;;;;;4928186;29;20237;-92
2023/05/03 23:35:29;;;;;;;3.53;2.83;;;;;;;;;;4919092;29;20200;-92
2023/05/03 23:38:01;;;;;;;6.70;2.13;;;;;;;;;;4920394;29;20283;-92
2023/05/03 23:40:36;;;;;;;3.53;3.13;;;;;;;;;;4920767;29;20211;-92
2023/05/03 23:43:08;;;;;;;5.20;3.37;;;;;;;;;;4923831;29;20226;-91
2023/05/03 23:48:30;;;;;;;2.70;2.07;;;;;;;;;;4918663;29;20335;-94
2023/05/03 23:51:11;;;;;;;4.03;2.43;;;;;;;;;;4919699;29;20208;-91
2023/05/03 23:53:42;;;;;;;2.73;2.50;;;;;;;;;;4918857;29;20226;-91
2023/05/03 23:56:13;;;;;;;2.13;2.03;;;;;;;;;;4919263;29;20204;-92
2023/05/03 23:58:44;;;;;;;5.33;3.17;;;;;;;;;;4919727;29;20212;-92
